sensor_id;sensor_type;location;lat;lon;timestamp;P1;durP1;ratioP1;P2;durP2;ratioP2
42226;SDS011;27892;52.378;13.122;2024-02-28T00:00:30;19.10;;;10.63;;
42226;SDS011;27892;52.378;13.122;2024-02-28T00:02:55;15.87;;;9.20;;
42226;SDS011;27892;52.378;13.122;2024-02-28T00:05:21;15.63;;;9.37;;
42226;SDS011;27892;52.378;13.122;2024-02-28T00:07:47;13.17;;;7.90;;
42226;SDS011;27892;52.378;13.122;2024-02-28T00:10:13;17.87;;;10.30;;
42226;SDS011;27892;52.378;13.122;2024-02-28T00:12:39;19.20;;;11.10;;
42226;SDS011;27892;52.378;13.122;2024-02-28T00:15:05;19.47;;;11.30;;
42226;SDS011;27892;52.378;13.122;2024-02-28T00:17:37;19.83;;;10.53;;
42226;SDS011;27892;52.378;13.122;2024-02-28T00:20:04;21.57;;;11.13;;
42226;SDS011;27892;52.378;13.122;2024-02-28T00:22:31;24.37;;;12.43;;
42226;SDS011;27892;52.378;13.122;2024-02-28T00:24:56;22.00;;;11.53;;
42226;SDS011;27892;52.378;13.122;2024-02-28T00:27:22;16.07;;;9.53;;
42226;SDS011;27892;52.378;13.122;2024-02-28T00:29:47;15.73;;;8.70;;
42226;SDS011;27892;52.378;13.122;2024-02-28T00:32:13;13.27;;;7.33;;
42226;SDS011;27892;52.378;13.122;2024-02-28T00:34:39;12.40;;;7.60;;
42226;SDS011;27892;52.378;13.122;2024-02-28T00:37:04;13.33;;;7.50;;
42226;SDS011;27892;52.378;13.122;2024-02-28T00:39:30;19.90;;;9.87;;
42226;SDS011;27892;52.378;13.122;2024-02-28T00:41:56;19.70;;;10.00;;
42226;SDS011;27892;52.378;13.122;2024-02-28T00:44:22;15.90;;;8.80;;
42226;SDS011;27892;52.378;13.122;2024-02-28T00:46:47;15.17;;;9.07;;
42226;SDS011;27892;52.378;13.122;2024-02-28T00:49:13;17.43;;;9.83;;
42226;SDS011;27892;52.378;13.122;2024-02-28T00:51:39;20.67;;;11.67;;
42226;SDS011;27892;52.378;13.122;2024-02-28T00:54:04;22.17;;;11.30;;
42226;SDS011;27892;52.378;13.122;2024-02-28T00:56:30;22.03;;;11.47;;
42226;SDS011;27892;52.378;13.122;2024-02-28T00:58:56;22.17;;;12.73;;
42226;SDS011;27892;52.378;13.122;2024-02-28T01:01:22;19.00;;;10.57;;
42226;SDS011;27892;52.378;13.122;2024-02-28T01:03:47;19.47;;;10.67;;
42226;SDS011;27892;52.378;13.122;2024-02-28T01:06:13;21.43;;;11.23;;
42226;SDS011;27892;52.378;13.122;2024-02-28T01:08:40;19.70;;;10.90;;
42226;SDS011;27892;52.378;13.122;2024-02-28T01:11:06;19.27;;;10.93;;
42226;SDS011;27892;52.378;13.122;2024-02-28T01:13:32;19.83;;;10.63;;
42226;SDS011;27892;52.378;13.122;2024-02-28T01:15:57;19.93;;;10.40;;
42226;SDS011;27892;52.378;13.122;2024-02-28T01:18:24;16.50;;;9.47;;
42226;SDS011;27892;52.378;13.122;2024-02-28T01:20:50;20.43;;;10.97;;
42226;SDS011;27892;52.378;13.122;2024-02-28T01:23:19;17.70;;;9.60;;
42226;SDS011;27892;52.378;13.122;2024-02-28T01:25:44;23.37;;;13.03;;
42226;SDS011;27892;52.378;13.122;2024-02-28T01:28:10;24.00;;;11.80;;
42226;SDS011;27892;52.378;13.122;2024-02-28T01:30:36;20.93;;;10.47;;
42226;SDS011;27892;52.378;13.122;2024-02-28T01:33:01;21.20;;;10.83;;
42226;SDS011;27892;52.378;13.122;2024-02-28T01:35:27;17.67;;;9.90;;
42226;SDS011;27892;52.378;13.122;2024-02-28T01:37:53;15.73;;;9.40;;
42226;SDS011;27892;52.378;13.122;2024-02-28T01:40:18;16.60;;;9.87;;
42226;SDS011;27892;52.378;13.122;2024-02-28T01:42:44;21.70;;;11.93;;
42226;SDS011;27892;52.378;13.122;2024-02-28T01:45:11;20.37;;;10.80;;
42226;SDS011;27892;52.378;13.122;2024-02-28T01:47:38;17.53;;;9.10;;
42226;SDS011;27892;52.378;13.122;2024-02-28T01:50:05;13.57;;;7.80;;
42226;SDS011;27892;52.378;13.122;2024-02-28T01:52:32;19.30;;;10.37;;
42226;SDS011;27892;52.378;13.122;2024-02-28T01:54:58;18.20;;;9.90;;
42226;SDS011;27892;52.378;13.122;2024-02-28T01:57:24;13.43;;;8.43;;
42226;SDS011;27892;52.378;13.122;2024-02-28T01:59:50;15.30;;;8.97;;
42226;SDS011;27892;52.378;13.122;2024-02-28T02:02:17;16.63;;;9.40;;
42226;SDS011;27892;52.378;13.122;2024-02-28T02:04:43;12.40;;;8.03;;
42226;SDS011;27892;52.378;13.122;2024-02-28T02:07:09;11.37;;;7.13;;
42226;SDS011;27892;52.378;13.122;2024-02-28T02:09:35;12.80;;;7.90;;
42226;SDS011;27892;52.378;13.122;2024-02-28T02:12:00;13.43;;;7.97;;
42226;SDS011;27892;52.378;13.122;2024-02-28T02:14:26;11.77;;;7.80;;
42226;SDS011;27892;52.378;13.122;2024-02-28T02:16:52;17.67;;;9.23;;
42226;SDS011;27892;52.378;13.122;2024-02-28T02:19:17;16.03;;;8.93;;
42226;SDS011;27892;52.378;13.122;2024-02-28T02:21:49;11.70;;;7.17;;
42226;SDS011;27892;52.378;13.122;2024-02-28T02:24:17;12.13;;;7.10;;
42226;SDS011;27892;52.378;13.122;2024-02-28T02:26:43;12.87;;;7.37;;
42226;SDS011;27892;52.378;13.122;2024-02-28T02:29:11;14.77;;;8.23;;
42226;SDS011;27892;52.378;13.122;2024-02-28T02:31:38;14.70;;;8.33;;
42226;SDS011;27892;52.378;13.122;2024-02-28T02:34:03;15.13;;;8.47;;
42226;SDS011;27892;52.378;13.122;2024-02-28T02:36:29;15.27;;;8.37;;
42226;SDS011;27892;52.378;13.122;2024-02-28T02:38:55;14.43;;;8.13;;
42226;SDS011;27892;52.378;13.122;2024-02-28T02:41:21;15.13;;;8.27;;
42226;SDS011;27892;52.378;13.122;2024-02-28T02:43:46;17.90;;;9.10;;
42226;SDS011;27892;52.378;13.122;2024-02-28T02:46:12;18.37;;;10.03;;
42226;SDS011;27892;52.378;13.122;2024-02-28T02:48:37;14.97;;;8.70;;
42226;SDS011;27892;52.378;13.122;2024-02-28T02:51:03;16.37;;;8.47;;
42226;SDS011;27892;52.378;13.122;2024-02-28T02:53:29;20.00;;;10.23;;
42226;SDS011;27892;52.378;13.122;2024-02-28T02:55:55;16.20;;;9.43;;
42226;SDS011;27892;52.378;13.122;2024-02-28T02:58:20;13.50;;;8.30;;
42226;SDS011;27892;52.378;13.122;2024-02-28T03:00:46;17.03;;;9.63;;
42226;SDS011;27892;52.378;13.122;2024-02-28T03:03:12;13.50;;;8.77;;
42226;SDS011;27892;52.378;13.122;2024-02-28T03:05:38;13.90;;;8.53;;
42226;SDS011;27892;52.378;13.122;2024-02-28T03:08:03;17.77;;;10.03;;
42226;SDS011;27892;52.378;13.122;2024-02-28T03:10:29;14.87;;;9.30;;
42226;SDS011;27892;52.378;13.122;2024-02-28T03:12:55;13.90;;;8.83;;
42226;SDS011;27892;52.378;13.122;2024-02-28T03:15:20;18.23;;;10.30;;
42226;SDS011;27892;52.378;13.122;2024-02-28T03:17:46;14.77;;;9.00;;
42226;SDS011;27892;52.378;13.122;2024-02-28T03:20:12;14.33;;;9.33;;
42226;SDS011;27892;52.378;13.122;2024-02-28T03:22:40;13.10;;;8.33;;
42226;SDS011;27892;52.378;13.122;2024-02-28T03:25:06;12.37;;;7.03;;
42226;SDS011;27892;52.378;13.122;2024-02-28T03:27:32;13.63;;;8.30;;
42226;SDS011;27892;52.378;13.122;2024-02-28T03:29:58;16.63;;;9.10;;
42226;SDS011;27892;52.378;13.122;2024-02-28T03:32:24;10.37;;;7.20;;
42226;SDS011;27892;52.378;13.122;2024-02-28T03:34:50;9.07;;;6.27;;
42226;SDS011;27892;52.378;13.122;2024-02-28T03:37:15;11.57;;;7.63;;
42226;SDS011;27892;52.378;13.122;2024-02-28T03:39:41;14.27;;;8.67;;
42226;SDS011;27892;52.378;13.122;2024-02-28T03:42:07;11.00;;;7.30;;
42226;SDS011;27892;52.378;13.122;2024-02-28T03:44:32;11.43;;;6.70;;
42226;SDS011;27892;52.378;13.122;2024-02-28T03:46:58;10.13;;;6.27;;
42226;SDS011;27892;52.378;13.122;2024-02-28T03:49:24;10.63;;;6.80;;
42226;SDS011;27892;52.378;13.122;2024-02-28T03:51:49;10.53;;;7.10;;
42226;SDS011;27892;52.378;13.122;2024-02-28T03:54:15;12.83;;;7.03;;
42226;SDS011;27892;52.378;13.122;2024-02-28T03:56:41;10.03;;;6.80;;
42226;SDS011;27892;52.378;13.122;2024-02-28T03:59:07;9.73;;;6.40;;
42226;SDS011;27892;52.378;13.122;2024-02-28T04:01:32;8.20;;;6.03;;
42226;SDS011;27892;52.378;13.122;2024-02-28T04:03:58;9.60;;;6.07;;
42226;SDS011;27892;52.378;13.122;2024-02-28T04:06:24;9.50;;;6.00;;
42226;SDS011;27892;52.378;13.122;2024-02-28T04:08:50;8.93;;;5.97;;
42226;SDS011;27892;52.378;13.122;2024-02-28T04:11:15;7.67;;;5.30;;
42226;SDS011;27892;52.378;13.122;2024-02-28T04:13:41;8.97;;;6.33;;
42226;SDS011;27892;52.378;13.122;2024-02-28T04:16:07;9.73;;;6.67;;
42226;SDS011;27892;52.378;13.122;2024-02-28T04:18:36;9.07;;;6.63;;
42226;SDS011;27892;52.378;13.122;2024-02-28T04:21:01;7.87;;;5.57;;
42226;SDS011;27892;52.378;13.122;2024-02-28T04:23:27;7.63;;;5.60;;
42226;SDS011;27892;52.378;13.122;2024-02-28T04:25:53;10.17;;;6.77;;
42226;SDS011;27892;52.378;13.122;2024-02-28T04:28:19;11.33;;;7.33;;
42226;SDS011;27892;52.378;13.122;2024-02-28T04:30:44;10.03;;;7.10;;
42226;SDS011;27892;52.378;13.122;2024-02-28T04:33:10;8.80;;;6.33;;
42226;SDS011;27892;52.378;13.122;2024-02-28T04:35:36;10.83;;;7.50;;
42226;SDS011;27892;52.378;13.122;2024-02-28T04:38:01;10.70;;;7.17;;
42226;SDS011;27892;52.378;13.122;2024-02-28T04:40:27;7.77;;;6.03;;
42226;SDS011;27892;52.378;13.122;2024-02-28T04:42:53;8.10;;;5.60;;
42226;SDS011;27892;52.378;13.122;2024-02-28T04:45:18;10.10;;;7.27;;
42226;SDS011;27892;52.378;13.122;2024-02-28T04:47:44;9.97;;;6.97;;
42226;SDS011;27892;52.378;13.122;2024-02-28T04:50:10;9.43;;;6.53;;
42226;SDS011;27892;52.378;13.122;2024-02-28T04:52:36;8.90;;;6.13;;
42226;SDS011;27892;52.378;13.122;2024-02-28T04:55:02;11.53;;;7.53;;
42226;SDS011;27892;52.378;13.122;2024-02-28T04:57:27;10.37;;;6.80;;
42226;SDS011;27892;52.378;13.122;2024-02-28T04:59:53;9.70;;;6.63;;
42226;SDS011;27892;52.378;13.122;2024-02-28T05:02:19;9.17;;;5.97;;
42226;SDS011;27892;52.378;13.122;2024-02-28T05:04:47;7.97;;;5.60;;
42226;SDS011;27892;52.378;13.122;2024-02-28T05:07:12;7.43;;;5.53;;
42226;SDS011;27892;52.378;13.122;2024-02-28T05:09:38;8.10;;;5.70;;
42226;SDS011;27892;52.378;13.122;2024-02-28T05:12:04;7.60;;;5.50;;
42226;SDS011;27892;52.378;13.122;2024-02-28T05:14:30;7.63;;;5.40;;
42226;SDS011;27892;52.378;13.122;2024-02-28T05:16:55;8.33;;;5.93;;
42226;SDS011;27892;52.378;13.122;2024-02-28T05:19:21;8.93;;;6.23;;
42226;SDS011;27892;52.378;13.122;2024-02-28T05:21:47;5.80;;;4.73;;
42226;SDS011;27892;52.378;13.122;2024-02-28T05:24:13;9.83;;;6.37;;
42226;SDS011;27892;52.378;13.122;2024-02-28T05:26:39;7.63;;;5.47;;
42226;SDS011;27892;52.378;13.122;2024-02-28T05:29:05;6.67;;;4.80;;
42226;SDS011;27892;52.378;13.122;2024-02-28T05:31:31;8.03;;;5.43;;
42226;SDS011;27892;52.378;13.122;2024-02-28T05:33:57;6.60;;;4.33;;
42226;SDS011;27892;52.378;13.122;2024-02-28T05:36:24;5.23;;;4.30;;
42226;SDS011;27892;52.378;13.122;2024-02-28T05:38:51;5.90;;;4.50;;
42226;SDS011;27892;52.378;13.122;2024-02-28T05:41:18;5.60;;;4.40;;
42226;SDS011;27892;52.378;13.122;2024-02-28T05:43:44;7.47;;;5.07;;
42226;SDS011;27892;52.378;13.122;2024-02-28T05:46:13;8.37;;;5.43;;
42226;SDS011;27892;52.378;13.122;2024-02-28T05:48:43;8.37;;;5.60;;
42226;SDS011;27892;52.378;13.122;2024-02-28T05:51:10;7.73;;;4.80;;
42226;SDS011;27892;52.378;13.122;2024-02-28T05:53:36;7.83;;;4.90;;
42226;SDS011;27892;52.378;13.122;2024-02-28T05:56:03;10.43;;;6.63;;
42226;SDS011;27892;52.378;13.122;2024-02-28T05:58:29;9.33;;;5.60;;
42226;SDS011;27892;52.378;13.122;2024-02-28T06:00:55;9.47;;;5.90;;
42226;SDS011;27892;52.378;13.122;2024-02-28T06:03:21;9.40;;;6.13;;
42226;SDS011;27892;52.378;13.122;2024-02-28T06:05:47;9.50;;;6.20;;
42226;SDS011;27892;52.378;13.122;2024-02-28T06:08:13;8.93;;;6.10;;
42226;SDS011;27892;52.378;13.122;2024-02-28T06:10:39;10.83;;;6.67;;
42226;SDS011;27892;52.378;13.122;2024-02-28T06:13:07;8.40;;;5.57;;
42226;SDS011;27892;52.378;13.122;2024-02-28T06:15:33;8.33;;;5.33;;
42226;SDS011;27892;52.378;13.122;2024-02-28T06:17:59;8.03;;;5.13;;
42226;SDS011;27892;52.378;13.122;2024-02-28T06:20:27;11.90;;;7.37;;
42226;SDS011;27892;52.378;13.122;2024-02-28T06:22:53;12.77;;;7.47;;
42226;SDS011;27892;52.378;13.122;2024-02-28T06:25:19;12.23;;;7.83;;
42226;SDS011;27892;52.378;13.122;2024-02-28T06:27:47;11.80;;;7.57;;
42226;SDS011;27892;52.378;13.122;2024-02-28T06:30:13;12.03;;;8.43;;
42226;SDS011;27892;52.378;13.122;2024-02-28T06:32:39;13.10;;;8.50;;
42226;SDS011;27892;52.378;13.122;2024-02-28T06:35:06;14.93;;;8.13;;
42226;SDS011;27892;52.378;13.122;2024-02-28T06:37:32;13.37;;;8.50;;
42226;SDS011;27892;52.378;13.122;2024-02-28T06:39:58;12.50;;;7.90;;
42226;SDS011;27892;52.378;13.122;2024-02-28T06:42:24;14.70;;;9.17;;
42226;SDS011;27892;52.378;13.122;2024-02-28T06:44:50;14.63;;;8.30;;
42226;SDS011;27892;52.378;13.122;2024-02-28T06:47:16;14.73;;;9.13;;
42226;SDS011;27892;52.378;13.122;2024-02-28T06:49:41;15.73;;;10.10;;
42226;SDS011;27892;52.378;13.122;2024-02-28T06:52:07;14.20;;;9.23;;
42226;SDS011;27892;52.378;13.122;2024-02-28T06:54:33;15.33;;;8.90;;
42226;SDS011;27892;52.378;13.122;2024-02-28T06:56:59;11.43;;;7.63;;
42226;SDS011;27892;52.378;13.122;2024-02-28T06:59:24;14.43;;;9.17;;
42226;SDS011;27892;52.378;13.122;2024-02-28T07:01:50;13.10;;;8.13;;
42226;SDS011;27892;52.378;13.122;2024-02-28T07:04:15;24.73;;;13.90;;
42226;SDS011;27892;52.378;13.122;2024-02-28T07:06:42;25.90;;;15.43;;
42226;SDS011;27892;52.378;13.122;2024-02-28T07:09:08;19.87;;;12.13;;
42226;SDS011;27892;52.378;13.122;2024-02-28T07:11:34;13.97;;;9.00;;
42226;SDS011;27892;52.378;13.122;2024-02-28T07:13:59;11.83;;;7.80;;
42226;SDS011;27892;52.378;13.122;2024-02-28T07:16:28;13.20;;;8.07;;
42226;SDS011;27892;52.378;13.122;2024-02-28T07:18:54;12.10;;;7.60;;
42226;SDS011;27892;52.378;13.122;2024-02-28T07:21:20;12.93;;;8.07;;
42226;SDS011;27892;52.378;13.122;2024-02-28T07:23:45;10.67;;;6.77;;
42226;SDS011;27892;52.378;13.122;2024-02-28T07:26:15;9.67;;;6.63;;
42226;SDS011;27892;52.378;13.122;2024-02-28T07:28:41;8.50;;;5.67;;
42226;SDS011;27892;52.378;13.122;2024-02-28T07:31:07;9.47;;;6.20;;
42226;SDS011;27892;52.378;13.122;2024-02-28T07:33:39;10.37;;;6.80;;
42226;SDS011;27892;52.378;13.122;2024-02-28T07:36:05;10.17;;;6.10;;
42226;SDS011;27892;52.378;13.122;2024-02-28T07:38:31;12.80;;;7.73;;
42226;SDS011;27892;52.378;13.122;2024-02-28T07:40:57;12.30;;;7.43;;
42226;SDS011;27892;52.378;13.122;2024-02-28T07:43:23;10.57;;;6.33;;
42226;SDS011;27892;52.378;13.122;2024-02-28T07:45:49;10.80;;;7.13;;
42226;SDS011;27892;52.378;13.122;2024-02-28T07:48:15;10.83;;;6.77;;
42226;SDS011;27892;52.378;13.122;2024-02-28T07:50:43;9.93;;;7.17;;
42226;SDS011;27892;52.378;13.122;2024-02-28T07:53:09;11.47;;;7.17;;
42226;SDS011;27892;52.378;13.122;2024-02-28T07:55:35;9.57;;;6.73;;
42226;SDS011;27892;52.378;13.122;2024-02-28T07:58:01;9.97;;;6.57;;
42226;SDS011;27892;52.378;13.122;2024-02-28T08:00:26;9.73;;;6.50;;
42226;SDS011;27892;52.378;13.122;2024-02-28T08:02:52;12.17;;;7.93;;
42226;SDS011;27892;52.378;13.122;2024-02-28T08:05:17;13.80;;;8.40;;
42226;SDS011;27892;52.378;13.122;2024-02-28T08:07:43;12.90;;;7.67;;
42226;SDS011;27892;52.378;13.122;2024-02-28T08:10:09;14.27;;;8.37;;
42226;SDS011;27892;52.378;13.122;2024-02-28T08:12:35;16.43;;;9.73;;
42226;SDS011;27892;52.378;13.122;2024-02-28T08:15:03;16.97;;;9.57;;
42226;SDS011;27892;52.378;13.122;2024-02-28T08:17:30;18.30;;;10.80;;
42226;SDS011;27892;52.378;13.122;2024-02-28T08:19:56;18.83;;;9.93;;
42226;SDS011;27892;52.378;13.122;2024-02-28T08:22:21;17.90;;;9.43;;
42226;SDS011;27892;52.378;13.122;2024-02-28T08:24:52;16.83;;;9.87;;
42226;SDS011;27892;52.378;13.122;2024-02-28T08:27:18;17.83;;;10.73;;
42226;SDS011;27892;52.378;13.122;2024-02-28T08:29:45;14.47;;;8.80;;
42226;SDS011;27892;52.378;13.122;2024-02-28T08:32:12;15.83;;;9.53;;
42226;SDS011;27892;52.378;13.122;2024-02-28T08:34:38;16.20;;;9.53;;
42226;SDS011;27892;52.378;13.122;2024-02-28T08:37:04;17.83;;;10.47;;
42226;SDS011;27892;52.378;13.122;2024-02-28T08:39:29;16.03;;;8.73;;
42226;SDS011;27892;52.378;13.122;2024-02-28T08:41:55;15.50;;;8.93;;
42226;SDS011;27892;52.378;13.122;2024-02-28T08:44:21;18.63;;;10.70;;
42226;SDS011;27892;52.378;13.122;2024-02-28T08:46:47;15.63;;;9.90;;
42226;SDS011;27892;52.378;13.122;2024-02-28T08:49:14;15.23;;;8.63;;
42226;SDS011;27892;52.378;13.122;2024-02-28T08:51:39;14.07;;;9.50;;
42226;SDS011;27892;52.378;13.122;2024-02-28T08:54:05;14.70;;;9.43;;
42226;SDS011;27892;52.378;13.122;2024-02-28T08:56:31;15.77;;;10.30;;
42226;SDS011;27892;52.378;13.122;2024-02-28T08:58:58;13.37;;;8.57;;
42226;SDS011;27892;52.378;13.122;2024-02-28T09:01:24;13.50;;;8.30;;
42226;SDS011;27892;52.378;13.122;2024-02-28T09:03:49;13.43;;;8.57;;
42226;SDS011;27892;52.378;13.122;2024-02-28T09:06:15;15.57;;;9.43;;
42226;SDS011;27892;52.378;13.122;2024-02-28T09:08:41;15.90;;;9.37;;
42226;SDS011;27892;52.378;13.122;2024-02-28T09:11:07;15.53;;;10.57;;
42226;SDS011;27892;52.378;13.122;2024-02-28T09:13:33;16.77;;;9.80;;
42226;SDS011;27892;52.378;13.122;2024-02-28T09:16:00;16.77;;;10.00;;
42226;SDS011;27892;52.378;13.122;2024-02-28T09:18:27;12.70;;;8.37;;
42226;SDS011;27892;52.378;13.122;2024-02-28T09:20:52;13.80;;;8.77;;
42226;SDS011;27892;52.378;13.122;2024-02-28T09:23:18;13.00;;;8.43;;
42226;SDS011;27892;52.378;13.122;2024-02-28T09:25:44;13.27;;;8.57;;
42226;SDS011;27892;52.378;13.122;2024-02-28T09:28:09;13.80;;;8.90;;
42226;SDS011;27892;52.378;13.122;2024-02-28T09:30:38;13.83;;;8.23;;
42226;SDS011;27892;52.378;13.122;2024-02-28T09:33:04;11.67;;;8.27;;
42226;SDS011;27892;52.378;13.122;2024-02-28T09:35:30;13.53;;;8.77;;
42226;SDS011;27892;52.378;13.122;2024-02-28T09:37:55;17.43;;;11.00;;
42226;SDS011;27892;52.378;13.122;2024-02-28T09:40:21;19.33;;;11.53;;
42226;SDS011;27892;52.378;13.122;2024-02-28T09:42:48;16.37;;;10.10;;
42226;SDS011;27892;52.378;13.122;2024-02-28T09:45:25;15.53;;;9.60;;
42226;SDS011;27892;52.378;13.122;2024-02-28T09:47:51;17.87;;;10.63;;
42226;SDS011;27892;52.378;13.122;2024-02-28T09:50:17;17.23;;;11.23;;
42226;SDS011;27892;52.378;13.122;2024-02-28T09:52:44;18.23;;;10.80;;
42226;SDS011;27892;52.378;13.122;2024-02-28T09:55:10;17.90;;;11.33;;
42226;SDS011;27892;52.378;13.122;2024-02-28T09:57:36;18.83;;;11.77;;
42226;SDS011;27892;52.378;13.122;2024-02-28T10:00:03;16.33;;;11.13;;
42226;SDS011;27892;52.378;13.122;2024-02-28T10:02:29;13.70;;;9.27;;
42226;SDS011;27892;52.378;13.122;2024-02-28T10:04:56;16.03;;;10.13;;
42226;SDS011;27892;52.378;13.122;2024-02-28T10:07:25;19.23;;;10.93;;
42226;SDS011;27892;52.378;13.122;2024-02-28T10:09:52;14.13;;;9.20;;
42226;SDS011;27892;52.378;13.122;2024-02-28T10:12:17;15.43;;;9.63;;
42226;SDS011;27892;52.378;13.122;2024-02-28T10:14:45;12.30;;;7.87;;
42226;SDS011;27892;52.378;13.122;2024-02-28T10:17:10;15.37;;;9.83;;
42226;SDS011;27892;52.378;13.122;2024-02-28T10:19:37;13.77;;;9.23;;
42226;SDS011;27892;52.378;13.122;2024-02-28T10:22:03;14.10;;;9.13;;
42226;SDS011;27892;52.378;13.122;2024-02-28T10:24:29;13.97;;;9.33;;
42226;SDS011;27892;52.378;13.122;2024-02-28T10:26:55;12.60;;;8.50;;
42226;SDS011;27892;52.378;13.122;2024-02-28T10:29:23;13.57;;;8.70;;
42226;SDS011;27892;52.378;13.122;2024-02-28T10:31:52;13.97;;;9.23;;
42226;SDS011;27892;52.378;13.122;2024-02-28T10:34:20;15.43;;;9.63;;
42226;SDS011;27892;52.378;13.122;2024-02-28T10:36:45;12.93;;;8.73;;
42226;SDS011;27892;52.378;13.122;2024-02-28T10:39:12;13.10;;;8.63;;
42226;SDS011;27892;52.378;13.122;2024-02-28T10:41:38;12.07;;;8.30;;
42226;SDS011;27892;52.378;13.122;2024-02-28T10:44:04;13.40;;;8.83;;
42226;SDS011;27892;52.378;13.122;2024-02-28T10:46:30;15.27;;;9.63;;
42226;SDS011;27892;52.378;13.122;2024-02-28T10:48:56;15.43;;;8.87;;
42226;SDS011;27892;52.378;13.122;2024-02-28T10:51:23;14.50;;;8.83;;
42226;SDS011;27892;52.378;13.122;2024-02-28T10:54:08;14.13;;;8.60;;
42226;SDS011;27892;52.378;13.122;2024-02-28T10:56:38;13.33;;;8.80;;
42226;SDS011;27892;52.378;13.122;2024-02-28T10:59:05;12.60;;;8.20;;
42226;SDS011;27892;52.378;13.122;2024-02-28T11:01:34;16.37;;;10.00;;
42226;SDS011;27892;52.378;13.122;2024-02-28T11:04:07;15.83;;;9.53;;
42226;SDS011;27892;52.378;13.122;2024-02-28T11:06:34;12.33;;;8.27;;
42226;SDS011;27892;52.378;13.122;2024-02-28T11:09:00;13.57;;;8.93;;
42226;SDS011;27892;52.378;13.122;2024-02-28T11:11:31;12.10;;;8.43;;
42226;SDS011;27892;52.378;13.122;2024-02-28T11:13:58;11.87;;;7.67;;
42226;SDS011;27892;52.378;13.122;2024-02-28T11:16:30;15.80;;;9.63;;
42226;SDS011;27892;52.378;13.122;2024-02-28T11:18:56;12.47;;;8.10;;
42226;SDS011;27892;52.378;13.122;2024-02-28T11:21:22;14.90;;;8.90;;
42226;SDS011;27892;52.378;13.122;2024-02-28T11:23:50;15.13;;;9.27;;
42226;SDS011;27892;52.378;13.122;2024-02-28T11:26:15;15.90;;;9.83;;
42226;SDS011;27892;52.378;13.122;2024-02-28T11:28:41;15.93;;;9.93;;
42226;SDS011;27892;52.378;13.122;2024-02-28T11:31:07;13.53;;;8.80;;
42226;SDS011;27892;52.378;13.122;2024-02-28T11:33:33;13.47;;;8.67;;
42226;SDS011;27892;52.378;13.122;2024-02-28T11:35:59;11.77;;;7.60;;
42226;SDS011;27892;52.378;13.122;2024-02-28T11:38:28;12.77;;;7.87;;
42226;SDS011;27892;52.378;13.122;2024-02-28T11:40:54;13.23;;;8.53;;
42226;SDS011;27892;52.378;13.122;2024-02-28T11:43:20;12.47;;;8.43;;
42226;SDS011;27892;52.378;13.122;2024-02-28T11:45:46;15.30;;;9.17;;
42226;SDS011;27892;52.378;13.122;2024-02-28T11:48:13;11.80;;;7.83;;
42226;SDS011;27892;52.378;13.122;2024-02-28T11:50:39;12.63;;;8.03;;
42226;SDS011;27892;52.378;13.122;2024-02-28T11:53:05;11.27;;;8.07;;
42226;SDS011;27892;52.378;13.122;2024-02-28T11:55:31;15.60;;;9.70;;
42226;SDS011;27892;52.378;13.122;2024-02-28T11:57:57;11.70;;;7.47;;
42226;SDS011;27892;52.378;13.122;2024-02-28T12:00:23;9.50;;;6.77;;
42226;SDS011;27892;52.378;13.122;2024-02-28T12:02:52;13.97;;;8.13;;
42226;SDS011;27892;52.378;13.122;2024-02-28T12:05:31;12.40;;;8.00;;
42226;SDS011;27892;52.378;13.122;2024-02-28T12:07:57;12.70;;;7.60;;
42226;SDS011;27892;52.378;13.122;2024-02-28T12:10:23;14.27;;;8.70;;
42226;SDS011;27892;52.378;13.122;2024-02-28T12:12:50;12.93;;;8.30;;
42226;SDS011;27892;52.378;13.122;2024-02-28T12:15:16;13.00;;;8.50;;
42226;SDS011;27892;52.378;13.122;2024-02-28T12:17:42;10.73;;;7.23;;
42226;SDS011;27892;52.378;13.122;2024-02-28T12:20:08;12.63;;;8.13;;
42226;SDS011;27892;52.378;13.122;2024-02-28T12:22:34;10.80;;;7.40;;
42226;SDS011;27892;52.378;13.122;2024-02-28T12:25:00;11.93;;;7.20;;
42226;SDS011;27892;52.378;13.122;2024-02-28T12:27:29;9.40;;;6.40;;
42226;SDS011;27892;52.378;13.122;2024-02-28T12:29:56;10.43;;;6.97;;
42226;SDS011;27892;52.378;13.122;2024-02-28T12:32:22;11.70;;;7.30;;
42226;SDS011;27892;52.378;13.122;2024-02-28T12:34:48;8.53;;;6.40;;
42226;SDS011;27892;52.378;13.122;2024-02-28T12:37:13;13.00;;;7.57;;
42226;SDS011;27892;52.378;13.122;2024-02-28T12:39:42;10.67;;;7.07;;
42226;SDS011;27892;52.378;13.122;2024-02-28T12:42:08;11.17;;;7.60;;
42226;SDS011;27892;52.378;13.122;2024-02-28T12:44:34;8.43;;;5.97;;
42226;SDS011;27892;52.378;13.122;2024-02-28T12:46:59;10.00;;;6.90;;
42226;SDS011;27892;52.378;13.122;2024-02-28T12:49:25;11.23;;;6.93;;
42226;SDS011;27892;52.378;13.122;2024-02-28T12:51:54;8.50;;;6.50;;
42226;SDS011;27892;52.378;13.122;2024-02-28T12:54:22;11.17;;;7.10;;
42226;SDS011;27892;52.378;13.122;2024-02-28T12:56:48;11.53;;;8.20;;
42226;SDS011;27892;52.378;13.122;2024-02-28T12:59:14;16.17;;;10.53;;
42226;SDS011;27892;52.378;13.122;2024-02-28T13:01:40;11.77;;;8.07;;
42226;SDS011;27892;52.378;13.122;2024-02-28T13:04:06;11.17;;;7.10;;
42226;SDS011;27892;52.378;13.122;2024-02-28T13:06:32;12.23;;;7.90;;
42226;SDS011;27892;52.378;13.122;2024-02-28T13:08:58;9.13;;;6.47;;
42226;SDS011;27892;52.378;13.122;2024-02-28T13:11:24;8.53;;;6.13;;
42226;SDS011;27892;52.378;13.122;2024-02-28T13:13:51;9.07;;;6.10;;
42226;SDS011;27892;52.378;13.122;2024-02-28T13:16:17;10.07;;;6.60;;
42226;SDS011;27892;52.378;13.122;2024-02-28T13:18:44;8.53;;;6.03;;
42226;SDS011;27892;52.378;13.122;2024-02-28T13:21:10;7.00;;;4.97;;
42226;SDS011;27892;52.378;13.122;2024-02-28T13:23:36;8.93;;;6.27;;
42226;SDS011;27892;52.378;13.122;2024-02-28T13:26:05;8.17;;;6.27;;
42226;SDS011;27892;52.378;13.122;2024-02-28T13:28:32;8.37;;;6.00;;
42226;SDS011;27892;52.378;13.122;2024-02-28T13:31:01;8.13;;;6.03;;
42226;SDS011;27892;52.378;13.122;2024-02-28T13:33:27;9.53;;;6.37;;
42226;SDS011;27892;52.378;13.122;2024-02-28T13:35:53;8.37;;;6.17;;
42226;SDS011;27892;52.378;13.122;2024-02-28T13:38:19;7.33;;;5.60;;
42226;SDS011;27892;52.378;13.122;2024-02-28T13:40:48;7.77;;;5.20;;
42226;SDS011;27892;52.378;13.122;2024-02-28T13:43:17;6.03;;;5.20;;
42226;SDS011;27892;52.378;13.122;2024-02-28T13:45:46;6.77;;;5.13;;
42226;SDS011;27892;52.378;13.122;2024-02-28T13:48:17;4.90;;;4.20;;
42226;SDS011;27892;52.378;13.122;2024-02-28T13:50:47;7.63;;;5.50;;
42226;SDS011;27892;52.378;13.122;2024-02-28T13:53:16;7.20;;;4.97;;
42226;SDS011;27892;52.378;13.122;2024-02-28T13:55:42;6.00;;;4.63;;
42226;SDS011;27892;52.378;13.122;2024-02-28T13:58:10;5.63;;;4.20;;
42226;SDS011;27892;52.378;13.122;2024-02-28T14:00:37;5.18;;;4.43;;
42226;SDS011;27892;52.378;13.122;2024-02-28T14:03:03;6.30;;;4.93;;
42226;SDS011;27892;52.378;13.122;2024-02-28T14:05:31;4.72;;;3.90;;
42226;SDS011;27892;52.378;13.122;2024-02-28T14:07:57;4.28;;;3.85;;
42226;SDS011;27892;52.378;13.122;2024-02-28T14:10:23;4.18;;;3.55;;
42226;SDS011;27892;52.378;13.122;2024-02-28T14:12:49;3.55;;;3.08;;
42226;SDS011;27892;52.378;13.122;2024-02-28T14:15:17;4.55;;;3.90;;
42226;SDS011;27892;52.378;13.122;2024-02-28T14:17:44;4.85;;;4.10;;